Time;durP1;ratioP1;P1;durP2;ratioP2;P2;SDS_P1;SDS_P2;PMS_P1;PMS_P2;Temp;Humidity;BMP_temperature;BMP_pressure;BME280_temperature;BME280_humidity;BME280_pressure;Samples;Min_cycle;Max_cycle;Signal;HPM_P1;HPM_P2
2023/11/22 00:01:17;;;;;;;12.57;11.13;;;9.30;99.90;;;;;;4980266;28;20445;-70
2023/11/22 00:03:44;;;;;;;14.90;13.10;;;9.30;99.90;;;;;;4980154;28;20445;-71
2023/11/22 00:06:12;;;;;;;18.17;12.73;;;9.30;99.90;;;;;;4978855;28;20449;-70
2023/11/22 00:08:39;;;;;;;14.90;12.67;;;9.30;99.90;;;;;;4979921;28;20445;-71
2023/11/22 00:11:07;;;;;;;13.43;11.73;;;9.30;99.90;;;;;;4979254;28;20449;-69
2023/11/22 00:13:34;;;;;;;14.60;12.40;;;9.30;99.90;;;;;;4978015;28;20481;-69
2023/11/22 00:16:01;;;;;;;15.90;13.50;;;9.30;99.90;;;;;;4977844;28;20457;-69
2023/11/22 00:18:30;;;;;;;13.97;12.40;;;9.30;99.90;;;;;;4978102;28;20951;-69
2023/11/22 00:20:59;;;;;;;15.80;13.47;;;9.30;99.90;;;;;;4978101;28;20567;-69
2023/11/22 00:23:29;;;;;;;16.03;12.40;;;9.30;99.90;;;;;;4978534;28;20499;-70
2023/11/22 00:25:56;;;;;;;17.10;13.03;;;9.30;99.90;;;;;;4979069;28;20482;-70
2023/11/22 00:28:24;;;;;;;17.47;14.17;;;9.30;99.90;;;;;;4978803;28;20453;-70
2023/11/22 00:30:51;;;;;;;16.23;13.63;;;9.30;99.90;;;;;;4979046;28;20477;-70
2023/11/22 00:33:19;;;;;;;18.73;14.37;;;9.30;99.90;;;;;;4978463;28;20555;-70
2023/11/22 00:35:47;;;;;;;16.30;14.30;;;9.30;99.90;;;;;;4977923;28;20877;-70
2023/11/22 00:38:13;;;;;;;16.20;13.80;;;9.30;99.90;;;;;;4978408;28;20815;-70
2023/11/22 00:40:40;;;;;;;17.07;14.23;;;9.30;99.90;;;;;;4977885;28;20473;-70
2023/11/22 00:43:07;;;;;;;17.03;13.77;;;9.30;99.90;;;;;;4978771;28;20446;-70
2023/11/22 00:45:35;;;;;;;17.37;13.17;;;9.40;99.90;;;;;;4979115;28;20453;-70
2023/11/22 00:48:03;;;;;;;16.03;13.90;;;9.40;99.90;;;;;;4991571;28;20461;-70
2023/11/22 00:50:30;;;;;;;14.30;12.80;;;9.40;99.90;;;;;;4984548;28;20465;-70
2023/11/22 00:52:57;;;;;;;16.37;12.20;;;9.30;99.90;;;;;;4981489;28;20504;-70
2023/11/22 00:55:24;;;;;;;16.03;12.47;;;9.30;99.90;;;;;;4980815;28;20449;-70
2023/11/22 00:57:53;;;;;;;13.40;12.00;;;9.30;99.90;;;;;;4980166;28;20452;-70
2023/11/22 01:00:21;;;;;;;15.20;12.70;;;9.30;99.90;;;;;;4981360;28;20528;-70
2023/11/22 01:02:51;;;;;;;13.83;12.00;;;9.20;99.90;;;;;;4979135;28;20467;-70
2023/11/22 01:05:19;;;;;;;16.00;13.27;;;9.20;99.90;;;;;;4980304;28;20457;-70
2023/11/22 01:07:45;;;;;;;14.90;13.30;;;9.20;99.90;;;;;;4979724;28;20974;-70
2023/11/22 01:10:16;;;;;;;17.17;13.30;;;9.20;99.90;;;;;;4979029;28;20473;-70
2023/11/22 01:12:42;;;;;;;14.70;12.90;;;9.20;99.90;;;;;;4979068;28;20484;-70
2023/11/22 01:15:10;;;;;;;15.93;13.20;;;9.20;99.90;;;;;;4979471;28;20504;-70
2023/11/22 01:17:37;;;;;;;17.90;14.27;;;9.20;99.90;;;;;;4977847;28;20453;-70
2023/11/22 01:20:11;;;;;;;18.00;12.13;;;9.20;99.90;;;;;;4977317;28;20465;-70
2023/11/22 01:22:38;;;;;;;16.00;12.30;;;9.20;99.90;;;;;;4975656;28;20462;-70
2023/11/22 01:25:06;;;;;;;13.70;11.40;;;9.10;99.90;;;;;;4977381;28;20480;-70
2023/11/22 01:27:34;;;;;;;16.00;13.67;;;9.10;99.90;;;;;;4977229;28;20451;-70
2023/11/22 01:30:03;;;;;;;17.20;14.50;;;9.10;99.90;;;;;;4976958;28;20485;-70
2023/11/22 01:32:31;;;;;;;14.13;11.83;;;9.10;99.90;;;;;;4977297;28;20488;-70
2023/11/22 01:34:58;;;;;;;15.63;12.37;;;9.00;99.90;;;;;;4977149;28;20453;-71
2023/11/22 01:37:27;;;;;;;17.77;14.47;;;9.00;99.90;;;;;;4980837;28;20476;-70
2023/11/22 01:39:55;;;;;;;13.40;12.00;;;9.00;99.90;;;;;;4981662;28;20501;-70
2023/11/22 01:42:23;;;;;;;15.50;12.30;;;8.90;99.90;;;;;;4980001;28;20449;-70
2023/11/22 01:44:50;;;;;;;13.63;11.17;;;8.90;99.90;;;;;;4978519;28;20488;-70
2023/11/22 01:47:20;;;;;;;12.90;11.60;;;8.90;99.90;;;;;;4978482;28;20450;-70
2023/11/22 01:49:47;;;;;;;13.27;10.97;;;8.90;99.90;;;;;;4977909;28;20854;-70
2023/11/22 01:52:16;;;;;;;13.93;11.10;;;8.90;99.90;;;;;;4977252;28;20449;-70
2023/11/22 01:54:44;;;;;;;11.77;10.57;;;8.80;99.90;;;;;;4977197;28;20496;-70
2023/11/22 01:57:12;;;;;;;13.80;11.37;;;8.80;99.90;;;;;;4977038;28;20506;-70
2023/11/22 01:59:40;;;;;;;12.97;11.40;;;8.80;99.90;;;;;;4975793;28;20895;-70
2023/11/22 02:02:07;;;;;;;17.60;11.23;;;8.80;99.90;;;;;;4976324;28;20801;-70
2023/11/22 02:04:35;;;;;;;14.23;12.00;;;8.80;99.90;;;;;;4976907;28;20449;-70
2023/11/22 02:07:03;;;;;;;12.87;11.17;;;8.80;99.90;;;;;;4976042;28;20450;-70
2023/11/22 02:09:30;;;;;;;13.33;11.20;;;8.70;99.90;;;;;;4975971;28;20469;-70
2023/11/22 02:11:59;;;;;;;13.37;11.77;;;8.70;99.90;;;;;;4975967;28;20449;-70
2023/11/22 02:14:29;;;;;;;14.43;12.03;;;8.70;99.90;;;;;;4975644;28;20481;-70
2023/11/22 02:16:55;;;;;;;13.43;12.03;;;8.70;99.90;;;;;;4975667;28;20453;-70
2023/11/22 02:19:23;;;;;;;12.43;11.20;;;8.60;99.90;;;;;;4974550;28;20524;-70
2023/11/22 02:21:51;;;;;;;15.33;11.70;;;8.60;99.90;;;;;;4975156;28;20955;-70
2023/11/22 02:24:19;;;;;;;15.73;12.43;;;8.60;99.90;;;;;;4975002;28;20450;-70
2023/11/22 02:26:46;;;;;;;13.47;11.93;;;8.50;99.90;;;;;;4976175;28;20445;-70
2023/11/22 02:29:15;;;;;;;13.83;11.93;;;8.50;99.90;;;;;;4975868;28;20511;-70
2023/11/22 02:31:43;;;;;;;13.10;11.40;;;8.50;99.90;;;;;;4975716;28;20943;-70
2023/11/22 02:34:10;;;;;;;13.80;12.40;;;8.40;99.90;;;;;;4975874;28;20527;-70
2023/11/22 02:36:38;;;;;;;12.40;10.90;;;8.40;99.90;;;;;;4976855;28;20980;-70
2023/11/22 02:39:06;;;;;;;12.57;11.20;;;8.40;99.90;;;;;;4976609;28;20469;-70
2023/11/22 02:41:34;;;;;;;15.40;12.17;;;8.40;99.90;;;;;;4975795;28;20449;-70
2023/11/22 02:44:01;;;;;;;12.30;10.90;;;8.40;99.90;;;;;;4976710;28;20481;-70
2023/11/22 02:46:30;;;;;;;12.90;11.47;;;8.40;99.90;;;;;;4976292;28;20469;-70
2023/11/22 02:48:59;;;;;;;15.07;11.27;;;8.30;99.90;;;;;;4975411;28;20479;-70
2023/11/22 02:51:26;;;;;;;14.17;12.23;;;8.30;99.90;;;;;;4975333;28;20450;-70
2023/11/22 02:53:53;;;;;;;14.00;11.90;;;8.30;99.90;;;;;;4985066;28;20512;-70
2023/11/22 02:56:21;;;;;;;12.30;10.23;;;8.30;99.90;;;;;;4984481;28;20913;-70
2023/11/22 02:58:49;;;;;;;13.17;11.87;;;8.30;99.90;;;;;;4985311;28;20457;-70
2023/11/22 03:01:16;;;;;;;13.70;10.70;;;8.20;99.90;;;;;;4991179;28;20456;-70
2023/11/22 03:03:42;;;;;;;15.03;12.23;;;8.20;99.90;;;;;;4985231;28;20441;-69
2023/11/22 03:06:09;;;;;;;12.90;11.60;;;8.20;99.90;;;;;;4983665;28;20445;-70
2023/11/22 03:08:36;;;;;;;12.87;10.80;;;8.20;99.90;;;;;;4982693;28;20477;-70
2023/11/22 03:11:05;;;;;;;13.70;11.43;;;8.10;99.90;;;;;;4981012;28;20453;-69
2023/11/22 03:13:33;;;;;;;11.30;10.17;;;8.10;99.90;;;;;;4981443;28;20487;-70
2023/11/22 03:16:03;;;;;;;14.00;11.07;;;8.10;99.90;;;;;;4978630;28;20449;-70
2023/11/22 03:18:31;;;;;;;11.10;9.97;;;8.10;99.90;;;;;;4979463;28;20437;-70
2023/11/22 03:20:57;;;;;;;13.20;11.00;;;8.00;99.90;;;;;;4979849;28;20472;-70
2023/11/22 03:23:28;;;;;;;13.13;11.17;;;8.10;99.90;;;;;;4979864;28;20449;-70
2023/11/22 03:25:55;;;;;;;14.90;12.27;;;8.00;99.90;;;;;;4980370;28;20464;-70
2023/11/22 03:28:22;;;;;;;14.00;12.43;;;8.00;99.90;;;;;;4981626;28;20452;-70
2023/11/22 03:30:49;;;;;;;14.33;11.73;;;7.90;99.90;;;;;;4980631;28;21012;-70
2023/11/22 03:33:18;;;;;;;15.40;12.70;;;7.90;99.90;;;;;;4981130;28;20523;-70
2023/11/22 03:35:45;;;;;;;13.60;12.00;;;7.90;99.90;;;;;;4978853;28;20477;-70
2023/11/22 03:38:11;;;;;;;13.80;11.67;;;7.90;99.90;;;;;;4979999;28;20445;-70
2023/11/22 03:40:38;;;;;;;14.87;12.03;;;7.80;99.90;;;;;;4979257;28;20843;-70
2023/11/22 03:43:05;;;;;;;17.07;13.20;;;7.80;99.90;;;;;;4980283;28;20827;-70
2023/11/22 03:45:34;;;;;;;15.40;13.30;;;7.80;99.90;;;;;;4979462;28;20453;-70
2023/11/22 03:48:03;;;;;;;12.83;11.37;;;7.80;99.90;;;;;;4979206;28;20488;-70
2023/11/22 03:50:31;;;;;;;14.53;11.80;;;7.80;99.90;;;;;;4979209;28;20539;-70
2023/11/22 03:52:59;;;;;;;15.33;12.40;;;7.70;99.90;;;;;;4978582;28;20962;-69
2023/11/22 03:55:26;;;;;;;14.77;12.50;;;7.70;99.90;;;;;;4978389;28;20497;-70
2023/11/22 03:57:53;;;;;;;18.10;14.30;;;7.70;99.90;;;;;;4977916;28;20450;-70
2023/11/22 04:00:20;;;;;;;17.33;12.80;;;7.70;99.90;;;;;;4978616;28;20473;-70
2023/11/22 04:02:47;;;;;;;16.50;12.70;;;7.70;99.90;;;;;;4978526;28;20453;-70
2023/11/22 04:05:15;;;;;;;14.40;12.90;;;7.70;99.90;;;;;;4978493;28;20962;-70
2023/11/22 04:07:43;;;;;;;14.90;13.13;;;7.70;99.90;;;;;;4977506;28;20457;-70
2023/11/22 04:10:12;;;;;;;16.70;13.87;;;7.60;99.90;;;;;;4978372;28;20474;-70
2023/11/22 04:12:41;;;;;;;16.93;12.87;;;7.60;99.90;;;;;;4978523;28;20457;-70
2023/11/22 04:15:10;;;;;;;15.97;13.47;;;7.60;99.90;;;;;;4980703;28;20552;-70
2023/11/22 04:17:37;;;;;;;16.30;13.53;;;7.60;99.90;;;;;;4982805;28;20492;-69
2023/11/22 04:20:08;;;;;;;14.20;11.77;;;7.50;99.90;;;;;;4980277;28;20472;-70
2023/11/22 04:22:35;;;;;;;15.43;11.97;;;7.50;99.90;;;;;;4980375;28;20446;-70
2023/11/22 04:25:04;;;;;;;15.23;12.07;;;7.50;99.90;;;;;;4979515;28;20468;-70
2023/11/22 04:27:31;;;;;;;17.07;13.03;;;7.50;99.90;;;;;;4978148;28;20456;-70
2023/11/22 04:29:58;;;;;;;16.40;12.40;;;7.50;99.90;;;;;;4977321;28;20504;-70
2023/11/22 04:32:24;;;;;;;14.77;12.47;;;7.50;99.90;;;;;;4977709;28;20450;-70
2023/11/22 04:34:51;;;;;;;15.70;12.53;;;7.50;99.90;;;;;;4977143;28;20836;-70
2023/11/22 04:37:18;;;;;;;15.23;13.30;;;7.40;99.90;;;;;;4976986;28;20449;-70
2023/11/22 04:39:45;;;;;;;15.97;12.77;;;7.40;99.90;;;;;;4978534;28;20588;-71
2023/11/22 04:42:14;;;;;;;15.53;13.10;;;7.40;99.90;;;;;;4978519;28;20457;-70
2023/11/22 04:44:43;;;;;;;16.70;13.03;;;7.40;99.90;;;;;;4978509;28;20449;-70
2023/11/22 04:47:10;;;;;;;16.23;12.93;;;7.40;99.90;;;;;;4978228;28;20449;-70
2023/11/22 04:49:36;;;;;;;16.50;13.27;;;7.40;99.90;;;;;;4978377;28;20473;-70
2023/11/22 04:52:03;;;;;;;16.30;12.97;;;7.40;99.90;;;;;;4979650;28;20448;-70
2023/11/22 04:54:31;;;;;;;16.70;13.33;;;7.30;99.90;;;;;;4978575;28;20496;-70
2023/11/22 04:56:59;;;;;;;17.30;13.10;;;7.30;99.90;;;;;;4978428;28;20457;-70
2023/11/22 04:59:27;;;;;;;18.47;13.83;;;7.30;99.90;;;;;;4977690;28;21127;-70
2023/11/22 05:01:54;;;;;;;17.43;12.93;;;7.20;99.90;;;;;;4978075;28;20525;-70
2023/11/22 05:04:21;;;;;;;17.63;13.80;;;7.20;99.90;;;;;;4978109;28;20481;-70
2023/11/22 05:06:48;;;;;;;16.90;12.70;;;7.20;99.90;;;;;;4977814;28;20453;-70
2023/11/22 05:09:17;;;;;;;16.93;13.33;;;7.20;99.90;;;;;;4976281;28;20464;-71
2023/11/22 05:11:45;;;;;;;17.23;13.57;;;7.10;99.90;;;;;;4977651;28;20453;-70
2023/11/22 05:14:12;;;;;;;18.47;13.93;;;7.10;99.90;;;;;;4977415;28;20994;-70
2023/11/22 05:16:41;;;;;;;18.10;13.37;;;7.10;99.90;;;;;;4991812;28;20497;-71
2023/11/22 05:19:11;;;;;;;20.10;15.13;;;7.10;99.90;;;;;;4984299;28;20469;-70
2023/11/22 05:21:37;;;;;;;17.90;14.00;;;7.00;99.90;;;;;;4981783;28;20436;-70
2023/11/22 05:24:07;;;;;;;19.77;14.17;;;7.00;99.90;;;;;;4979854;28;20449;-70
2023/11/22 05:26:37;;;;;;;17.87;13.50;;;7.00;99.90;;;;;;4978000;28;20552;-70
2023/11/22 05:29:05;;;;;;;21.20;15.80;;;7.00;99.90;;;;;;4977883;28;20560;-70
2023/11/22 05:31:32;;;;;;;22.07;14.80;;;7.00;99.90;;;;;;4978228;28;20512;-70
2023/11/22 05:34:02;;;;;;;20.67;15.90;;;6.90;99.90;;;;;;4976306;28;20453;-70
2023/11/22 05:36:30;;;;;;;20.47;15.40;;;6.90;99.90;;;;;;4977420;28;20528;-70
2023/11/22 05:38:58;;;;;;;19.10;14.37;;;7.00;99.90;;;;;;4975879;28;20476;-70
2023/11/22 05:41:25;;;;;;;21.93;15.47;;;7.00;99.90;;;;;;4976857;28;20444;-70
2023/11/22 05:43:52;;;;;;;22.00;15.10;;;6.90;99.90;;;;;;4976752;28;20456;-70
2023/11/22 05:46:21;;;;;;;19.17;13.93;;;6.90;99.90;;;;;;4977446;28;20516;-70
2023/11/22 05:48:49;;;;;;;20.10;14.43;;;6.90;99.90;;;;;;4976325;28;20870;-71
2023/11/22 05:51:18;;;;;;;23.30;16.33;;;6.90;99.90;;;;;;4976937;28;20445;-71
2023/11/22 05:53:44;;;;;;;19.50;15.37;;;6.90;99.90;;;;;;4976617;28;20868;-70
2023/11/22 05:56:11;;;;;;;18.03;14.23;;;6.90;99.90;;;;;;4976574;28;20511;-70
2023/11/22 05:58:43;;;;;;;21.13;15.20;;;6.90;99.90;;;;;;4976512;28;20452;-71
2023/11/22 06:01:11;;;;;;;18.47;13.80;;;6.90;99.90;;;;;;4977124;28;20437;-70
2023/11/22 06:03:39;;;;;;;18.50;14.87;;;6.90;99.90;;;;;;4977009;28;20485;-70
2023/11/22 06:06:07;;;;;;;19.90;14.93;;;6.90;99.90;;;;;;4976502;28;20496;-70
2023/11/22 06:08:35;;;;;;;21.60;15.07;;;6.90;99.90;;;;;;4976260;28;20456;-71
2023/11/22 06:11:04;;;;;;;21.47;14.93;;;6.80;99.90;;;;;;4975397;28;20448;-71
2023/11/22 06:13:31;;;;;;;17.63;14.50;;;6.90;99.90;;;;;;4975833;28;21034;-70
2023/11/22 06:15:58;;;;;;;18.30;13.70;;;6.80;99.90;;;;;;4976049;28;20481;-71
2023/11/22 06:18:29;;;;;;;16.80;12.80;;;6.80;99.90;;;;;;4976528;28;20904;-70
2023/11/22 06:20:56;;;;;;;16.37;13.70;;;6.80;99.90;;;;;;4975992;28;20480;-70
2023/11/22 06:23:23;;;;;;;17.10;13.33;;;6.80;99.90;;;;;;4976560;28;20574;-70
2023/11/22 06:25:51;;;;;;;18.97;13.47;;;6.80;99.90;;;;;;4974884;28;20449;-70
2023/11/22 06:28:19;;;;;;;19.93;15.73;;;6.80;99.90;;;;;;4976092;28;20479;-70
2023/11/22 06:30:45;;;;;;;15.83;12.73;;;6.70;99.70;;;;;;4977418;28;21009;-71
2023/11/22 06:33:14;;;;;;;17.93;13.70;;;6.70;99.70;;;;;;4976746;28;20453;-70
2023/11/22 06:35:42;;;;;;;17.00;13.20;;;6.70;99.70;;;;;;4975900;28;20493;-70
2023/11/22 06:38:09;;;;;;;19.37;13.97;;;6.70;99.60;;;;;;4975950;28;20449;-70
2023/11/22 06:40:37;;;;;;;15.70;12.90;;;6.70;99.60;;;;;;4976095;28;20887;-70
2023/11/22 06:43:05;;;;;;;20.67;14.87;;;6.60;99.50;;;;;;4975838;28;20916;-70
2023/11/22 06:45:33;;;;;;;18.20;13.03;;;6.60;99.40;;;;;;4976415;28;20872;-70
2023/11/22 06:48:00;;;;;;;17.13;14.43;;;6.60;99.30;;;;;;4976142;28;20449;-70
2023/11/22 06:50:27;;;;;;;17.53;13.23;;;6.60;99.40;;;;;;4974768;28;20473;-70
2023/11/22 06:52:54;;;;;;;18.60;14.73;;;6.60;99.50;;;;;;4976346;28;20504;-70
2023/11/22 06:55:23;;;;;;;17.40;13.70;;;6.50;99.40;;;;;;4977717;28;20477;-70
2023/11/22 06:57:51;;;;;;;16.90;14.40;;;6.50;99.30;;;;;;4979934;28;20453;-70
2023/11/22 07:00:21;;;;;;;17.50;13.53;;;6.50;99.30;;;;;;4983290;28;20472;-70
2023/11/22 07:02:47;;;;;;;19.50;12.90;;;6.50;99.30;;;;;;4986244;28;20453;-70
2023/11/22 07:05:15;;;;;;;18.67;13.73;;;6.50;99.30;;;;;;4983556;28;20445;-70
2023/11/22 07:07:42;;;;;;;18.30;14.50;;;6.40;99.30;;;;;;4984451;28;20445;-70
2023/11/22 07:10:11;;;;;;;15.43;12.40;;;6.40;99.30;;;;;;4982351;28;20481;-70
2023/11/22 07:12:39;;;;;;;16.30;13.20;;;6.40;99.30;;;;;;4982903;28;20445;-70
2023/11/22 07:15:09;;;;;;;21.57;14.50;;;6.40;99.30;;;;;;4982676;28;20516;-70
2023/11/22 07:17:38;;;;;;;14.67;11.80;;;6.40;99.20;;;;;;4981521;28;20970;-70
2023/11/22 07:20:09;;;;;;;17.77;13.77;;;6.40;99.10;;;;;;4980197;28;20563;-70
2023/11/22 07:22:37;;;;;;;17.37;12.80;;;6.40;98.90;;;;;;4979177;28;20484;-70
2023/11/22 07:25:06;;;;;;;16.03;12.37;;;6.40;98.80;;;;;;4980357;28;20465;-70
2023/11/22 07:27:34;;;;;;;16.97;13.17;;;6.30;98.70;;;;;;4989419;28;20477;-71
2023/11/22 07:30:01;;;;;;;17.23;11.93;;;6.30;98.70;;;;;;4988323;28;20480;-70
2023/11/22 07:32:29;;;;;;;15.20;12.63;;;6.30;98.70;;;;;;4984972;28;20480;-70
2023/11/22 07:35:03;;;;;;;14.13;10.97;;;6.30;98.60;;;;;;4981420;28;20571;-70
2023/11/22 07:37:31;;;;;;;17.77;12.87;;;6.20;98.60;;;;;;4982740;28;20433;-70
2023/11/22 07:40:00;;;;;;;17.30;12.20;;;6.20;98.60;;;;;;4980611;28;20519;-70
2023/11/22 07:42:27;;;;;;;18.73;13.27;;;6.20;98.60;;;;;;4980576;28;20445;-70
2023/11/22 07:44:56;;;;;;;14.70;12.00;;;6.30;98.80;;;;;;4980830;28;20856;-70
2023/11/22 07:47:26;;;;;;;15.17;12.23;;;6.20;98.80;;;;;;4980451;28;20457;-70
2023/11/22 07:49:55;;;;;;;16.70;12.40;;;6.20;98.90;;;;;;4978465;28;20665;-70
2023/11/22 07:52:29;;;;;;;16.50;12.20;;;6.30;99.20;;;;;;4979739;28;20460;-70
2023/11/22 07:54:57;;;;;;;23.37;13.73;;;6.30;99.30;;;;;;4980064;28;20471;-70
2023/11/22 07:57:31;;;;;;;15.27;11.87;;;6.30;99.40;;;;;;4980164;28;20841;-70
2023/11/22 08:00:00;;;;;;;15.93;13.40;;;6.30;99.50;;;;;;4980029;28;20516;-70
2023/11/22 08:02:27;;;;;;;15.90;12.13;;;6.30;99.50;;;;;;4978845;28;20512;-68
2023/11/22 08:04:55;;;;;;;17.10;13.13;;;6.40;99.70;;;;;;4979367;28;20441;-68
2023/11/22 08:07:26;;;;;;;16.20;13.03;;;6.40;99.70;;;;;;4979732;28;20464;-68
2023/11/22 08:09:56;;;;;;;20.33;13.43;;;6.40;99.80;;;;;;4979535;28;20505;-68
2023/11/22 08:12:26;;;;;;;16.30;13.63;;;6.40;99.80;;;;;;4979168;28;20453;-68
2023/11/22 08:14:55;;;;;;;16.30;12.40;;;6.40;99.90;;;;;;4978435;28;20485;-68
2023/11/22 08:17:22;;;;;;;17.73;14.10;;;6.40;99.90;;;;;;4977420;28;20465;-68
2023/11/22 08:19:49;;;;;;;15.70;12.27;;;6.40;99.90;;;;;;4978743;28;20475;-68
2023/11/22 08:22:18;;;;;;;15.57;12.63;;;6.40;99.90;;;;;;4977784;28;20520;-68
2023/11/22 08:24:49;;;;;;;18.27;13.00;;;6.40;99.90;;;;;;4978671;28;20827;-69
2023/11/22 08:27:18;;;;;;;15.83;12.60;;;6.50;99.90;;;;;;4978639;28;20441;-68
2023/11/22 08:29:47;;;;;;;16.97;13.53;;;6.50;99.90;;;;;;4978775;28;20473;-68
2023/11/22 08:32:14;;;;;;;17.43;12.50;;;6.50;99.90;;;;;;4977056;28;20465;-69
2023/11/22 08:34:42;;;;;;;17.10;13.93;;;6.50;99.90;;;;;;4978072;28;20829;-69
2023/11/22 08:37:09;;;;;;;25.00;13.10;;;6.50;99.90;;;;;;4978054;28;20483;-68
2023/11/22 08:39:37;;;;;;;15.60;12.20;;;6.50;99.90;;;;;;4977971;28;20568;-69
2023/11/22 08:42:09;;;;;;;14.63;11.33;;;6.50;99.90;;;;;;4977226;28;20496;-68
2023/11/22 08:44:36;;;;;;;19.07;12.90;;;6.50;99.90;;;;;;4977159;28;20957;-69
2023/11/22 08:47:03;;;;;;;14.00;12.00;;;6.60;99.90;;;;;;4977847;28;20445;-68
2023/11/22 08:49:30;;;;;;;13.80;11.80;;;6.70;99.90;;;;;;4977880;28;20500;-68
2023/11/22 08:51:59;;;;;;;14.93;12.53;;;6.70;99.90;;;;;;4977838;28;20449;-68
2023/11/22 08:54:28;;;;;;;17.77;12.47;;;6.60;99.90;;;;;;4977415;28;20461;-69
2023/11/22 08:56:57;;;;;;;18.13;12.20;;;6.70;99.90;;;;;;4977739;28;20485;-69
2023/11/22 08:59:25;;;;;;;16.40;12.80;;;6.70;99.90;;;;;;4977349;28;21057;-69
2023/11/22 09:01:52;;;;;;;13.33;11.80;;;6.70;99.90;;;;;;4977795;28;20453;-69
2023/11/22 09:04:19;;;;;;;16.33;13.00;;;6.70;99.90;;;;;;4977835;28;20449;-69
2023/11/22 09:06:48;;;;;;;17.30;12.17;;;6.70;99.90;;;;;;4977290;28;20446;-69
2023/11/22 09:09:16;;;;;;;16.00;12.60;;;6.70;99.90;;;;;;4976773;28;20997;-69
2023/11/22 09:11:43;;;;;;;15.97;12.90;;;6.70;99.90;;;;;;4975919;28;20507;-69
2023/11/22 09:14:10;;;;;;;15.93;12.90;;;6.70;99.90;;;;;;4977600;28;20499;-69
2023/11/22 09:16:39;;;;;;;16.40;13.30;;;6.70;99.90;;;;;;4977643;28;20592;-69
2023/11/22 09:19:07;;;;;;;14.00;11.50;;;6.80;99.90;;;;;;4977176;28;20496;-69
2023/11/22 09:21:34;;;;;;;14.40;11.60;;;6.90;99.90;;;;;;4977048;28;20865;-69
2023/11/22 09:24:02;;;;;;;13.40;10.80;;;6.90;99.90;;;;;;4975420;28;20503;-69
2023/11/22 09:26:30;;;;;;;18.00;12.00;;;7.00;99.90;;;;;;4977213;28;20484;-68
2023/11/22 09:28:58;;;;;;;14.00;11.60;;;7.10;99.90;;;;;;4976381;28;20501;-68
2023/11/22 09:31:26;;;;;;;18.63;14.17;;;7.30;99.90;;;;;;4976459;28;20541;-67
2023/11/22 09:33:54;;;;;;;14.10;11.93;;;7.40;99.90;;;;;;4977935;28;20456;-69
2023/11/22 09:36:21;;;;;;;12.80;10.20;;;7.40;99.90;;;;;;4981309;28;20477;-68
2023/11/22 09:38:48;;;;;;;16.57;12.33;;;7.60;99.90;;;;;;4987713;28;20456;-68
2023/11/22 09:41:17;;;;;;;13.00;10.40;;;7.70;99.90;;;;;;4980958;28;20446;-68
2023/11/22 09:43:46;;;;;;;14.03;11.53;;;7.80;99.90;;;;;;4978823;28;20511;-67
2023/11/22 09:46:19;;;;;;;13.10;11.43;;;7.90;99.90;;;;;;4978379;28;20441;-68
2023/11/22 09:48:50;;;;;;;14.73;11.80;;;8.00;99.90;;;;;;4978012;28;20438;-68
2023/11/22 09:51:24;;;;;;;14.33;11.90;;;8.00;99.90;;;;;;4977378;28;20430;-68
2023/11/22 09:53:59;;;;;;;12.93;11.10;;;8.10;99.90;;;;;;4976900;28;20449;-68
2023/11/22 09:56:28;;;;;;;12.37;11.07;;;8.20;99.90;;;;;;4976444;28;20465;-68
2023/11/22 09:59:00;;;;;;;16.47;12.23;;;8.30;99.90;;;;;;4976454;28;20469;-69
2023/11/22 10:01:31;;;;;;;12.90;10.93;;;8.40;99.90;;;;;;4976310;28;20868;-68
2023/11/22 10:04:01;;;;;;;13.87;11.97;;;8.40;99.50;;;;;;4976219;28;20865;-69
2023/11/22 10:06:35;;;;;;;18.30;12.30;;;8.40;99.40;;;;;;4976426;28;20979;-68
2023/11/22 10:09:08;;;;;;;13.80;10.60;;;8.50;99.60;;;;;;4976120;28;21026;-69
2023/11/22 10:11:36;;;;;;;15.30;11.90;;;8.60;99.80;;;;;;4976426;28;20426;-69
2023/11/22 10:14:02;;;;;;;14.97;11.23;;;8.70;99.70;;;;;;4976587;28;20449;-69
2023/11/22 10:16:37;;;;;;;16.27;11.50;;;8.80;99.50;;;;;;4975544;28;20499;-69
2023/11/22 10:19:06;;;;;;;13.23;10.70;;;8.90;99.20;;;;;;4976614;28;20475;-69
2023/11/22 10:21:35;;;;;;;11.60;10.27;;;9.00;98.70;;;;;;4975475;28;20453;-70
2023/11/22 10:24:04;;;;;;;12.00;10.70;;;9.20;98.50;;;;;;4976306;28;20824;-70
2023/11/22 10:26:31;;;;;;;14.57;10.47;;;9.30;98.20;;;;;;4976010;28;20449;-70
2023/11/22 10:29:00;;;;;;;13.80;10.33;;;9.30;97.10;;;;;;4975332;28;20469;-70
2023/11/22 10:31:28;;;;;;;11.80;9.43;;;9.30;97.10;;;;;;4976054;28;20449;-70
2023/11/22 10:33:57;;;;;;;11.87;9.97;;;9.40;97.00;;;;;;4975711;28;20461;-70
2023/11/22 10:36:25;;;;;;;11.73;10.37;;;9.50;95.50;;;;;;4980017;28;20484;-70
2023/11/22 10:38:54;;;;;;;11.20;9.00;;;9.50;96.10;;;;;;4979888;28;20457;-70
2023/11/22 10:41:22;;;;;;;9.13;8.20;;;9.50;96.40;;;;;;4980723;28;20620;-70
2023/11/22 10:43:54;;;;;;;9.33;8.20;;;9.60;95.90;;;;;;4980418;28;20536;-70
2023/11/22 10:46:22;;;;;;;10.23;8.67;;;9.80;95.30;;;;;;4980550;28;20443;-70
2023/11/22 10:48:49;;;;;;;10.17;9.00;;;9.90;95.00;;;;;;4980657;28;20449;-70
2023/11/22 10:51:16;;;;;;;11.03;9.70;;;9.80;94.30;;;;;;4980480;28;20448;-69
2023/11/22 10:53:49;;;;;;;11.70;9.67;;;9.90;94.30;;;;;;4980731;28;20453;-70
2023/11/22 10:56:20;;;;;;;11.47;8.57;;;10.10;94.00;;;;;;4980240;28;21053;-70
2023/11/22 10:58:49;;;;;;;9.93;9.03;;;10.20;92.70;;;;;;4980543;28;20453;-70
2023/11/22 11:01:17;;;;;;;9.10;8.20;;;10.30;91.80;;;;;;4980173;28;20468;-70
2023/11/22 11:03:52;;;;;;;9.00;7.67;;;10.40;91.00;;;;;;4981300;28;20531;-71
2023/11/22 11:06:27;;;;;;;8.30;7.50;;;10.60;91.00;;;;;;4988955;28;20425;-70
2023/11/22 11:08:55;;;;;;;8.97;7.80;;;10.70;89.20;;;;;;4987983;28;20428;-70
2023/11/22 11:11:24;;;;;;;7.33;6.63;;;10.90;89.20;;;;;;4987143;28;20445;-70
2023/11/22 11:13:52;;;;;;;7.77;6.97;;;11.20;88.40;;;;;;4986917;28;20464;-70
2023/11/22 11:16:22;;;;;;;7.73;6.93;;;11.40;84.50;;;;;;4985579;28;20485;-70
2023/11/22 11:18:50;;;;;;;8.03;7.20;;;11.70;83.80;;;;;;4985701;28;20441;-70
2023/11/22 11:21:18;;;;;;;10.07;8.07;;;12.00;83.50;;;;;;4985693;28;20448;-70
2023/11/22 11:23:46;;;;;;;8.70;7.80;;;12.30;82.60;;;;;;4984389;28;20931;-70
2023/11/22 11:26:17;;;;;;;9.47;7.50;;;12.50;81.80;;;;;;4983593;28;20445;-70
2023/11/22 11:28:47;;;;;;;7.00;6.30;;;12.60;77.30;;;;;;4983136;28;20900;-71
2023/11/22 11:31:15;;;;;;;6.33;5.63;;;12.70;76.00;;;;;;4982588;28;20504;-70
2023/11/22 11:33:55;;;;;;;6.20;5.60;;;12.80;74.50;;;;;;4981317;28;20448;-70
2023/11/22 11:36:24;;;;;;;7.97;5.53;;;12.80;69.80;;;;;;4982373;28;20479;-70
2023/11/22 11:38:52;;;;;;;6.40;5.80;;;12.80;69.10;;;;;;4983032;28;20460;-70
2023/11/22 11:41:19;;;;;;;6.50;5.90;;;12.80;69.40;;;;;;4983092;28;20460;-70
2023/11/22 11:43:49;;;;;;;6.97;5.70;;;12.80;68.80;;;;;;4982409;28;21014;-70
2023/11/22 11:46:17;;;;;;;5.80;5.00;;;12.80;67.50;;;;;;4981360;28;20465;-70
2023/11/22 11:48:45;;;;;;;6.00;5.40;;;12.80;67.80;;;;;;4991868;28;20464;-71
2023/11/22 11:51:14;;;;;;;6.30;5.67;;;12.90;68.70;;;;;;4987820;28;20449;-70
2023/11/22 11:53:41;;;;;;;6.10;5.50;;;12.90;66.50;;;;;;4984691;28;20445;-70
2023/11/22 11:56:11;;;;;;;6.03;5.43;;;12.90;64.50;;;;;;4983444;28;20507;-70
2023/11/22 11:58:38;;;;;;;5.43;4.93;;;12.90;64.10;;;;;;4982454;28;20458;-71
2023/11/22 12:01:07;;;;;;;6.93;4.80;;;12.90;63.30;;;;;;4982083;28;20484;-70
2023/11/22 12:03:34;;;;;;;6.73;4.27;;;12.90;60.80;;;;;;4980407;28;20455;-70
2023/11/22 12:06:01;;;;;;;5.40;4.90;;;13.00;59.50;;;;;;4981933;28;20472;-70
2023/11/22 12:08:33;;;;;;;4.50;4.10;;;13.10;58.70;;;;;;4980196;28;20449;-70
2023/11/22 12:10:59;;;;;;;3.97;3.63;;;13.20;58.60;;;;;;4980384;28;20484;-70
2023/11/22 12:13:27;;;;;;;4.33;3.93;;;13.20;59.70;;;;;;4981577;28;20456;-70
2023/11/22 12:15:56;;;;;;;8.60;4.93;;;13.20;59.20;;;;;;4980648;28;20449;-71
2023/11/22 12:18:27;;;;;;;4.70;4.03;;;13.20;56.70;;;;;;4982755;28;20444;-70
2023/11/22 12:20:57;;;;;;;4.50;4.10;;;13.00;57.90;;;;;;4983369;28;20461;-70
2023/11/22 12:23:27;;;;;;;5.53;5.00;;;12.90;60.60;;;;;;4981274;28;20571;-70
2023/11/22 12:25:58;;;;;;;7.57;5.30;;;12.80;59.40;;;;;;4982360;28;20444;-70
2023/11/22 12:28:27;;;;;;;5.80;4.70;;;12.80;60.40;;;;;;4981653;28;20448;-70
2023/11/22 12:30:54;;;;;;;5.07;4.67;;;12.80;62.80;;;;;;4980999;28;20531;-70
2023/11/22 12:33:21;;;;;;;7.93;4.97;;;12.90;62.30;;;;;;4980432;28;20467;-70
2023/11/22 12:35:50;;;;;;;6.33;4.87;;;13.00;60.20;;;;;;4980359;28;20441;-70
2023/11/22 12:38:19;;;;;;;4.87;4.37;;;13.10;60.20;;;;;;4980111;28;20484;-70
2023/11/22 12:40:48;;;;;;;5.43;3.80;;;13.40;59.80;;;;;;4980154;28;20472;-70
2023/11/22 12:43:15;;;;;;;7.63;4.13;;;13.70;57.40;;;;;;4980095;28;20952;-70